»·PEaware :: N75NG KSLC-KBOI

N75NG :: KSLC-KBOI

FLIGHT INFORMATION

Flight Status: Arrived
Operator: Privately registered:
United States
More flights under this callsign
Pilot: Matt C. (18949)
Aircraft: PILATUS PC-12 EAGLE
(PC12)
More flights by this aircraft type
Origin: KSLC Salt Lake City Intl
United States
Destination: KBOI Boise Air Terminal/Gowen
United States
More flights between these airports :: More routes between these airports
Route: +SLC4 TCH J15 TWF BROPH SPUUD3
File this flight plan on PilotEdge
Remarks: MY FIRST FLIGHT ON THE NETWORK
Altitude:
(Current/Filed)
22,000ft
Speed:
(Current/Filed)
270kts
Departed: 19-Apr-18 07:38 PM
Arrived: 19-Apr-18 08:43 PM
Distance/Time
Traveled:
250nm/1:04
Distance/Time
To Go:
Arrived

Flight Plot

Page will automatically refresh every two minutes.

Flight plan parsing failed; only flown route is shown


Map Options




Map Legend


Flown Route
Filed Route
Departure Airport
Arrival Airport
Navaid (VOR, NDB)
Fix

Horizontal Profiles

Position Reports

Time Latitude Longitude Heading Altitude Ground
Speed
19-Apr-18 19:13 40.775648 -111.958739 358 4231ft 0kts
19-Apr-18 19:14 40.775648 -111.958739 358 4231ft 0kts
19-Apr-18 19:15 40.775648 -111.958739 358 4231ft 0kts
19-Apr-18 19:16 40.775648 -111.958739 358 4231ft 0kts
19-Apr-18 19:17 40.775648 -111.958739 358 4231ft 0kts
19-Apr-18 19:18 40.775648 -111.958739 358 4231ft 0kts
19-Apr-18 19:19 40.775648 -111.958739 358 4231ft 0kts
19-Apr-18 19:20 40.775648 -111.958739 358 4231ft 0kts
19-Apr-18 19:21 40.775648 -111.958739 358 4231ft 0kts
19-Apr-18 19:22 40.775648 -111.958739 358 4231ft 0kts
19-Apr-18 19:23 40.775648 -111.958739 358 4231ft 0kts
19-Apr-18 19:24 40.775648 -111.958739 358 4231ft 0kts
19-Apr-18 19:25 40.775648 -111.958739 358 4231ft 0kts
19-Apr-18 19:26 40.775648 -111.958739 358 4231ft 0kts
19-Apr-18 19:27 40.775648 -111.958739 358 4231ft 0kts
19-Apr-18 19:28 40.775648 -111.958739 358 4231ft 0kts
19-Apr-18 19:29 40.775648 -111.958739 358 4231ft 0kts
19-Apr-18 19:30 40.775648 -111.958739 358 4231ft 0kts
19-Apr-18 19:31 40.775648 -111.958739 358 4231ft 0kts
19-Apr-18 19:32 40.775648 -111.958739 358 4231ft 0kts
19-Apr-18 19:33 40.775648 -111.958739 358 4231ft 0kts
19-Apr-18 19:34 40.776075 -111.960224 212 4231ft 12kts
19-Apr-18 19:35 40.773388 -111.960562 183 4231ft 0kts
19-Apr-18 19:36 40.773017 -111.960624 202 4231ft 0kts
19-Apr-18 19:37 40.785020 -111.962168 0 4370ft 123kts
19-Apr-18 19:38 40.821624 -111.964778 352 5925ft 138kts
19-Apr-18 19:39 40.860134 -111.970278 351 7513ft 142kts
19-Apr-18 19:40 40.889009 -111.999269 290 9080ft 141kts
19-Apr-18 19:41 40.899440 -112.051312 277 10536ft 147kts
19-Apr-18 19:42 40.910230 -112.102725 289 12065ft 146kts
19-Apr-18 19:43 40.924028 -112.151817 289 13444ft 140kts
19-Apr-18 19:44 40.937620 -112.200183 289 14704ft 141kts
19-Apr-18 19:45 40.950745 -112.246903 290 15871ft 141kts
19-Apr-18 19:46 40.968907 -112.292338 309 17022ft 143kts
19-Apr-18 19:47 40.994414 -112.337560 305 18422ft 168kts
19-Apr-18 19:48 41.035862 -112.375722 321 19822ft 195kts
19-Apr-18 19:49 41.076835 -112.427382 313 21107ft 213kts
19-Apr-18 19:50 41.117770 -112.484815 313 22000ft 236kts
19-Apr-18 19:51 41.166096 -112.553445 313 22001ft 267kts
19-Apr-18 19:52 41.217723 -112.627154 313 22000ft 276kts
19-Apr-18 19:53 41.269763 -112.701663 312 21999ft 278kts
19-Apr-18 19:54 41.321708 -112.776566 313 21998ft 275kts
19-Apr-18 19:55 41.376500 -112.847754 316 21999ft 275kts
19-Apr-18 19:56 41.432747 -112.916529 317 21999ft 275kts
19-Apr-18 19:57 41.489085 -112.985290 317 21999ft 275kts
19-Apr-18 19:58 41.545433 -113.054044 317 21999ft 275kts
19-Apr-18 19:59 41.597048 -113.129153 311 21999ft 275kts
19-Apr-18 20:00 41.647809 -113.205791 311 21999ft 275kts
19-Apr-18 20:01 41.698414 -113.282318 311 21999ft 275kts
19-Apr-18 20:02 41.749107 -113.359173 311 21999ft 275kts
19-Apr-18 20:03 41.799722 -113.436111 311 21999ft 275kts
19-Apr-18 20:04 41.850146 -113.512953 311 21999ft 275kts
19-Apr-18 20:05 41.900543 -113.589956 311 21999ft 275kts
19-Apr-18 20:06 41.950480 -113.666454 310 21999ft 275kts
19-Apr-18 20:07 42.000854 -113.743817 310 21999ft 275kts
19-Apr-18 20:08 42.051173 -113.821303 310 21999ft 275kts
19-Apr-18 20:09 42.101204 -113.898549 310 21999ft 275kts
19-Apr-18 20:10 42.150937 -113.975535 310 21999ft 275kts
19-Apr-18 20:11 42.201014 -114.053254 310 21999ft 275kts
19-Apr-18 20:12 42.251244 -114.131418 310 21999ft 275kts
19-Apr-18 20:13 42.301139 -114.209267 310 21999ft 275kts
19-Apr-18 20:14 42.351116 -114.287448 310 21999ft 275kts
19-Apr-18 20:15 42.401219 -114.366037 310 21999ft 275kts
19-Apr-18 20:16 42.451113 -114.444506 310 21999ft 275kts
19-Apr-18 20:17 42.500738 -114.523034 310 21999ft 275kts
19-Apr-18 20:18 42.550269 -114.601997 310 21999ft 275kts
19-Apr-18 20:19 42.599499 -114.680689 309 21999ft 275kts
19-Apr-18 20:20 42.649055 -114.760115 309 21999ft 275kts
19-Apr-18 20:21 42.698422 -114.839452 309 21999ft 275kts
19-Apr-18 20:22 42.749521 -114.916655 313 21999ft 275kts
19-Apr-18 20:23 42.802338 -114.992383 313 21999ft 275kts
19-Apr-18 20:24 42.854858 -115.067923 313 21999ft 275kts
19-Apr-18 20:25 42.907892 -115.144280 313 21205ft 279kts
19-Apr-18 20:26 42.961609 -115.222101 313 19559ft 283kts
19-Apr-18 20:27 43.014895 -115.299591 313 18179ft 278kts
19-Apr-18 20:28 43.067362 -115.376114 313 16993ft 274kts
19-Apr-18 20:29 43.118350 -115.450716 313 16971ft 266kts
19-Apr-18 20:30 43.169669 -115.525704 313 15742ft 278kts
19-Apr-18 20:31 43.222250 -115.602752 313 14381ft 275kts
19-Apr-18 20:32 43.273489 -115.678452 311 13058ft 272kts
19-Apr-18 20:33 43.323417 -115.755107 311 11750ft 268kts
19-Apr-18 20:34 43.372085 -115.829840 311 10462ft 259kts
19-Apr-18 20:35 43.416932 -115.898637 311 8929ft 221kts
19-Apr-18 20:36 43.457207 -115.960554 311 7292ft 225kts
19-Apr-18 20:37 43.491981 -116.026952 302 5945ft 203kts
19-Apr-18 20:38 43.518702 -116.095510 297 4418ft 194kts
19-Apr-18 20:39 43.536428 -116.145750 296 3738ft 115kts
19-Apr-18 20:40 43.549095 -116.181423 296 3284ft 98kts
19-Apr-18 20:41 43.560202 -116.213735 295 2875ft 73kts
19-Apr-18 20:42 43.562794 -116.224047 208 2875ft 0kts
19-Apr-18 20:43 43.563293 -116.226613 294 2875ft 28kts
19-Apr-18 20:44 43.564778 -116.235391 267 2875ft 26kts
19-Apr-18 20:45 43.564752 -116.235330 76 2875ft 17kts
19-Apr-18 20:46 43.563622 -116.227558 115 2875ft 38kts
19-Apr-18 20:47 43.558999 -116.214015 113 2875ft 29kts
19-Apr-18 20:48 43.557756 -116.209864 49 2875ft 0kts
19-Apr-18 20:49 43.559114 -116.210526 294 2875ft 40kts
19-Apr-18 20:50 43.573522 -116.253455 291 4005ft 158kts
19-Apr-18 20:51 43.537926 -116.254341 124 4092ft 203kts
19-Apr-18 20:52 43.531336 -116.205594 38 4034ft 129kts
19-Apr-18 20:53 43.558289 -116.208246 298 2933ft 100kts
19-Apr-18 20:54 43.570450 -116.247010 278 3401ft 153kts
19-Apr-18 20:55 43.535539 -116.255319 125 4054ft 183kts
19-Apr-18 20:56 43.522193 -116.206342 49 3931ft 118kts

Navigation Log

Ident Type
Flight plan parsing failed, navigation log unavailable